sensor_id;sensor_type;location;lat;lon;timestamp;temperature;humidity
35445;DHT22;21562;49.476;6.086;2022-07-19T00:00:15;22.80;67.50
35445;DHT22;21562;49.476;6.086;2022-07-19T00:02:41;23.10;67.10
35445;DHT22;21562;49.476;6.086;2022-07-19T00:05:08;23.10;68.00
35445;DHT22;21562;49.476;6.086;2022-07-19T00:07:35;23.30;66.80
35445;DHT22;21562;49.476;6.086;2022-07-19T00:10:02;22.90;67.20
35445;DHT22;21562;49.476;6.086;2022-07-19T00:12:28;22.50;68.30
35445;DHT22;21562;49.476;6.086;2022-07-19T00:14:54;22.20;69.50
35445;DHT22;21562;49.476;6.086;2022-07-19T00:17:20;22.20;69.80
35445;DHT22;21562;49.476;6.086;2022-07-19T00:19:45;21.70;71.00
35445;DHT22;21562;49.476;6.086;2022-07-19T00:22:11;21.60;71.80
35445;DHT22;21562;49.476;6.086;2022-07-19T00:24:37;21.60;71.90
35445;DHT22;21562;49.476;6.086;2022-07-19T00:27:02;21.70;71.80
35445;DHT22;21562;49.476;6.086;2022-07-19T00:29:28;21.70;71.80
35445;DHT22;21562;49.476;6.086;2022-07-19T00:31:54;21.70;71.90
35445;DHT22;21562;49.476;6.086;2022-07-19T00:34:19;21.80;71.60
35445;DHT22;21562;49.476;6.086;2022-07-19T00:36:45;21.90;71.20
35445;DHT22;21562;49.476;6.086;2022-07-19T00:39:11;21.60;72.20
35445;DHT22;21562;49.476;6.086;2022-07-19T00:41:43;21.60;72.40
35445;DHT22;21562;49.476;6.086;2022-07-19T00:44:10;21.80;71.80
35445;DHT22;21562;49.476;6.086;2022-07-19T00:46:37;22.00;71.40
35445;DHT22;21562;49.476;6.086;2022-07-19T00:49:03;22.00;71.20
35445;DHT22;21562;49.476;6.086;2022-07-19T00:51:29;22.00;71.50
35445;DHT22;21562;49.476;6.086;2022-07-19T00:54:00;22.00;71.50
35445;DHT22;21562;49.476;6.086;2022-07-19T00:56:26;22.30;71.00
35445;DHT22;21562;49.476;6.086;2022-07-19T00:58:54;22.50;70.60
35445;DHT22;21562;49.476;6.086;2022-07-19T01:01:19;22.50;70.50
35445;DHT22;21562;49.476;6.086;2022-07-19T01:03:46;22.60;70.40
35445;DHT22;21562;49.476;6.086;2022-07-19T01:06:12;22.40;70.70
35445;DHT22;21562;49.476;6.086;2022-07-19T01:08:38;22.30;71.10
35445;DHT22;21562;49.476;6.086;2022-07-19T01:11:05;22.00;71.80
35445;DHT22;21562;49.476;6.086;2022-07-19T01:13:32;21.90;72.30
35445;DHT22;21562;49.476;6.086;2022-07-19T01:15:58;21.80;73.50
35445;DHT22;21562;49.476;6.086;2022-07-19T01:18:24;21.70;72.80
35445;DHT22;21562;49.476;6.086;2022-07-19T01:20:51;21.80;72.90
35445;DHT22;21562;49.476;6.086;2022-07-19T01:23:16;21.80;73.10
35445;DHT22;21562;49.476;6.086;2022-07-19T01:25:42;21.90;72.90
35445;DHT22;21562;49.476;6.086;2022-07-19T01:28:08;21.90;72.70
35445;DHT22;21562;49.476;6.086;2022-07-19T01:30:34;21.30;74.00
35445;DHT22;21562;49.476;6.086;2022-07-19T01:33:00;21.10;75.20
35445;DHT22;21562;49.476;6.086;2022-07-19T01:35:26;21.20;75.40
35445;DHT22;21562;49.476;6.086;2022-07-19T01:37:52;21.40;74.70
35445;DHT22;21562;49.476;6.086;2022-07-19T01:40:19;21.50;74.50
35445;DHT22;21562;49.476;6.086;2022-07-19T01:42:46;21.40;74.80
35445;DHT22;21562;49.476;6.086;2022-07-19T01:45:13;21.50;74.60
35445;DHT22;21562;49.476;6.086;2022-07-19T01:47:39;21.60;74.30
35445;DHT22;21562;49.476;6.086;2022-07-19T01:50:07;21.40;74.80
35445;DHT22;21562;49.476;6.086;2022-07-19T01:52:34;21.50;74.60
35445;DHT22;21562;49.476;6.086;2022-07-19T01:55:00;21.60;74.50
35445;DHT22;21562;49.476;6.086;2022-07-19T01:57:25;21.70;74.40
35445;DHT22;21562;49.476;6.086;2022-07-19T01:59:52;22.00;73.90
35445;DHT22;21562;49.476;6.086;2022-07-19T02:02:18;21.90;73.40
35445;DHT22;21562;49.476;6.086;2022-07-19T02:04:44;21.70;74.20
35445;DHT22;21562;49.476;6.086;2022-07-19T02:07:09;21.50;74.50
35445;DHT22;21562;49.476;6.086;2022-07-19T02:09:35;21.30;76.10
35445;DHT22;21562;49.476;6.086;2022-07-19T02:12:01;21.00;76.40
35445;DHT22;21562;49.476;6.086;2022-07-19T02:14:26;20.70;77.40
35445;DHT22;21562;49.476;6.086;2022-07-19T02:16:52;20.60;78.50
35445;DHT22;21562;49.476;6.086;2022-07-19T02:19:17;20.60;78.50
35445;DHT22;21562;49.476;6.086;2022-07-19T02:21:43;20.80;78.10
35445;DHT22;21562;49.476;6.086;2022-07-19T02:24:09;20.70;78.10
35445;DHT22;21562;49.476;6.086;2022-07-19T02:26:35;20.70;78.70
35445;DHT22;21562;49.476;6.086;2022-07-19T02:29:01;20.60;78.50
35445;DHT22;21562;49.476;6.086;2022-07-19T02:31:27;20.50;79.10
35445;DHT22;21562;49.476;6.086;2022-07-19T02:33:53;20.50;79.40
35445;DHT22;21562;49.476;6.086;2022-07-19T02:36:18;20.40;79.80
35445;DHT22;21562;49.476;6.086;2022-07-19T02:38:45;20.30;80.20
35445;DHT22;21562;49.476;6.086;2022-07-19T02:41:10;20.50;80.70
35445;DHT22;21562;49.476;6.086;2022-07-19T02:43:37;20.60;79.60
35445;DHT22;21562;49.476;6.086;2022-07-19T02:46:03;20.70;79.70
35445;DHT22;21562;49.476;6.086;2022-07-19T02:48:28;20.70;79.70
35445;DHT22;21562;49.476;6.086;2022-07-19T02:50:54;20.70;79.70
35445;DHT22;21562;49.476;6.086;2022-07-19T02:53:20;20.50;80.00
35445;DHT22;21562;49.476;6.086;2022-07-19T02:55:45;20.60;80.30
35445;DHT22;21562;49.476;6.086;2022-07-19T02:58:11;20.50;80.60
35445;DHT22;21562;49.476;6.086;2022-07-19T03:00:37;20.40;81.00
35445;DHT22;21562;49.476;6.086;2022-07-19T03:03:02;20.30;81.90
35445;DHT22;21562;49.476;6.086;2022-07-19T03:05:48;20.20;82.00
35445;DHT22;21562;49.476;6.086;2022-07-19T03:08:14;20.10;83.20
35445;DHT22;21562;49.476;6.086;2022-07-19T03:10:40;20.10;82.80
35445;DHT22;21562;49.476;6.086;2022-07-19T03:13:06;20.20;82.50
35445;DHT22;21562;49.476;6.086;2022-07-19T03:15:34;20.00;83.30
35445;DHT22;21562;49.476;6.086;2022-07-19T03:18:00;19.70;84.30
35445;DHT22;21562;49.476;6.086;2022-07-19T03:20:26;19.70;84.70
35445;DHT22;21562;49.476;6.086;2022-07-19T03:22:52;19.90;83.90
35445;DHT22;21562;49.476;6.086;2022-07-19T03:25:17;20.00;84.50
35445;DHT22;21562;49.476;6.086;2022-07-19T03:27:43;20.20;83.80
35445;DHT22;21562;49.476;6.086;2022-07-19T03:30:09;20.10;83.70
35445;DHT22;21562;49.476;6.086;2022-07-19T03:32:35;19.90;84.60
35445;DHT22;21562;49.476;6.086;2022-07-19T03:35:01;19.80;85.40
35445;DHT22;21562;49.476;6.086;2022-07-19T03:37:26;19.70;85.40
35445;DHT22;21562;49.476;6.086;2022-07-19T03:39:52;19.80;90.90
35445;DHT22;21562;49.476;6.086;2022-07-19T03:42:18;21.40;87.70
35445;DHT22;21562;49.476;6.086;2022-07-19T03:44:44;22.40;82.00
35445;DHT22;21562;49.476;6.086;2022-07-19T03:47:09;22.70;81.30
35445;DHT22;21562;49.476;6.086;2022-07-19T03:49:35;23.10;79.20
35445;DHT22;21562;49.476;6.086;2022-07-19T03:52:01;23.40;77.40
35445;DHT22;21562;49.476;6.086;2022-07-19T03:54:26;23.30;74.70
35445;DHT22;21562;49.476;6.086;2022-07-19T03:56:52;23.60;77.00
35445;DHT22;21562;49.476;6.086;2022-07-19T03:59:18;23.80;74.90
35445;DHT22;21562;49.476;6.086;2022-07-19T04:01:44;24.00;75.80
35445;DHT22;21562;49.476;6.086;2022-07-19T04:04:09;23.80;73.30
35445;DHT22;21562;49.476;6.086;2022-07-19T04:06:35;23.60;74.10
35445;DHT22;21562;49.476;6.086;2022-07-19T04:09:01;23.20;77.40
35445;DHT22;21562;49.476;6.086;2022-07-19T04:11:27;23.40;74.90
35445;DHT22;21562;49.476;6.086;2022-07-19T04:13:53;23.30;77.10
35445;DHT22;21562;49.476;6.086;2022-07-19T04:16:19;23.50;76.60
35445;DHT22;21562;49.476;6.086;2022-07-19T04:18:44;23.90;72.90
35445;DHT22;21562;49.476;6.086;2022-07-19T04:21:10;24.20;74.60
35445;DHT22;21562;49.476;6.086;2022-07-19T04:23:36;24.20;74.10
35445;DHT22;21562;49.476;6.086;2022-07-19T04:26:01;24.40;73.40
35445;DHT22;21562;49.476;6.086;2022-07-19T04:28:27;24.50;72.80
35445;DHT22;21562;49.476;6.086;2022-07-19T04:30:52;24.80;71.60
35445;DHT22;21562;49.476;6.086;2022-07-19T04:33:19;25.10;70.50
35445;DHT22;21562;49.476;6.086;2022-07-19T04:35:45;25.20;70.60
35445;DHT22;21562;49.476;6.086;2022-07-19T04:38:11;25.30;70.00
35445;DHT22;21562;49.476;6.086;2022-07-19T04:40:37;25.00;70.40
35445;DHT22;21562;49.476;6.086;2022-07-19T04:43:03;24.80;70.60
35445;DHT22;21562;49.476;6.086;2022-07-19T04:45:29;24.90;70.90
35445;DHT22;21562;49.476;6.086;2022-07-19T04:47:55;24.50;71.70
35445;DHT22;21562;49.476;6.086;2022-07-19T04:50:21;24.00;72.70
35445;DHT22;21562;49.476;6.086;2022-07-19T04:52:47;24.40;72.00
35445;DHT22;21562;49.476;6.086;2022-07-19T04:55:13;24.70;71.20
35445;DHT22;21562;49.476;6.086;2022-07-19T04:57:39;25.10;70.20
35445;DHT22;21562;49.476;6.086;2022-07-19T05:00:07;25.30;70.00
35445;DHT22;21562;49.476;6.086;2022-07-19T05:02:35;25.50;69.20
35445;DHT22;21562;49.476;6.086;2022-07-19T05:05:01;25.50;68.90
35445;DHT22;21562;49.476;6.086;2022-07-19T05:07:27;25.60;67.80
35445;DHT22;21562;49.476;6.086;2022-07-19T05:09:52;25.70;68.30
35445;DHT22;21562;49.476;6.086;2022-07-19T05:12:18;25.80;68.30
35445;DHT22;21562;49.476;6.086;2022-07-19T05:14:44;25.90;67.90
35445;DHT22;21562;49.476;6.086;2022-07-19T05:17:09;25.90;67.90
35445;DHT22;21562;49.476;6.086;2022-07-19T05:19:35;26.00;68.00
35445;DHT22;21562;49.476;6.086;2022-07-19T05:22:01;26.10;67.70
35445;DHT22;21562;49.476;6.086;2022-07-19T05:24:26;26.10;67.10
35445;DHT22;21562;49.476;6.086;2022-07-19T05:26:52;26.00;67.60
35445;DHT22;21562;49.476;6.086;2022-07-19T05:29:18;25.90;67.60
35445;DHT22;21562;49.476;6.086;2022-07-19T05:31:43;25.90;67.90
35445;DHT22;21562;49.476;6.086;2022-07-19T05:34:09;26.00;67.60
35445;DHT22;21562;49.476;6.086;2022-07-19T05:36:35;25.80;67.70
35445;DHT22;21562;49.476;6.086;2022-07-19T05:39:00;25.90;67.80
35445;DHT22;21562;49.476;6.086;2022-07-19T05:41:26;26.10;67.80
35445;DHT22;21562;49.476;6.086;2022-07-19T05:43:52;26.20;67.40
35445;DHT22;21562;49.476;6.086;2022-07-19T05:46:18;26.30;67.30
35445;DHT22;21562;49.476;6.086;2022-07-19T05:48:43;26.40;67.10
35445;DHT22;21562;49.476;6.086;2022-07-19T05:51:09;26.60;67.00
35445;DHT22;21562;49.476;6.086;2022-07-19T05:53:36;26.70;67.20
35445;DHT22;21562;49.476;6.086;2022-07-19T05:56:03;26.80;66.90
35445;DHT22;21562;49.476;6.086;2022-07-19T05:58:29;26.90;66.80
35445;DHT22;21562;49.476;6.086;2022-07-19T06:00:54;26.90;66.50
35445;DHT22;21562;49.476;6.086;2022-07-19T06:03:39;27.00;65.40
35445;DHT22;21562;49.476;6.086;2022-07-19T06:06:04;26.90;65.40
35445;DHT22;21562;49.476;6.086;2022-07-19T06:08:30;27.00;66.50
35445;DHT22;21562;49.476;6.086;2022-07-19T06:10:56;27.00;66.40
35445;DHT22;21562;49.476;6.086;2022-07-19T06:13:22;27.10;66.60
35445;DHT22;21562;49.476;6.086;2022-07-19T06:15:48;27.20;66.30
35445;DHT22;21562;49.476;6.086;2022-07-19T06:18:15;27.20;65.60
35445;DHT22;21562;49.476;6.086;2022-07-19T06:20:41;27.30;65.90
35445;DHT22;21562;49.476;6.086;2022-07-19T06:23:07;27.30;65.70
35445;DHT22;21562;49.476;6.086;2022-07-19T06:25:32;27.30;65.40
35445;DHT22;21562;49.476;6.086;2022-07-19T06:27:58;27.40;65.60
35445;DHT22;21562;49.476;6.086;2022-07-19T06:30:24;27.50;65.40
35445;DHT22;21562;49.476;6.086;2022-07-19T06:32:50;27.60;65.20
35445;DHT22;21562;49.476;6.086;2022-07-19T06:35:16;27.70;65.00
35445;DHT22;21562;49.476;6.086;2022-07-19T06:37:41;27.70;65.40
35445;DHT22;21562;49.476;6.086;2022-07-19T06:40:07;27.80;64.60
35445;DHT22;21562;49.476;6.086;2022-07-19T06:42:33;27.90;64.70
35445;DHT22;21562;49.476;6.086;2022-07-19T06:44:59;28.00;64.60
35445;DHT22;21562;49.476;6.086;2022-07-19T06:47:28;27.80;64.40
35445;DHT22;21562;49.476;6.086;2022-07-19T06:49:53;27.70;64.70
35445;DHT22;21562;49.476;6.086;2022-07-19T06:52:19;27.60;65.00
35445;DHT22;21562;49.476;6.086;2022-07-19T06:54:45;27.50;63.50
35445;DHT22;21562;49.476;6.086;2022-07-19T06:57:11;27.60;61.60
35445;DHT22;21562;49.476;6.086;2022-07-19T06:59:37;27.60;62.40
35445;DHT22;21562;49.476;6.086;2022-07-19T07:02:02;27.60;59.80
35445;DHT22;21562;49.476;6.086;2022-07-19T07:04:30;27.60;57.60
35445;DHT22;21562;49.476;6.086;2022-07-19T07:06:56;27.40;56.80
35445;DHT22;21562;49.476;6.086;2022-07-19T07:09:21;27.40;57.80
35445;DHT22;21562;49.476;6.086;2022-07-19T07:11:47;27.40;57.20
35445;DHT22;21562;49.476;6.086;2022-07-19T07:14:13;27.40;56.90
35445;DHT22;21562;49.476;6.086;2022-07-19T07:16:39;27.40;56.80
35445;DHT22;21562;49.476;6.086;2022-07-19T07:19:05;27.30;56.90
35445;DHT22;21562;49.476;6.086;2022-07-19T07:21:31;27.40;56.90
35445;DHT22;21562;49.476;6.086;2022-07-19T07:24:01;27.50;56.90
35445;DHT22;21562;49.476;6.086;2022-07-19T07:26:28;27.60;57.10
35445;DHT22;21562;49.476;6.086;2022-07-19T07:28:54;27.60;57.20
35445;DHT22;21562;49.476;6.086;2022-07-19T07:31:19;27.80;57.50
35445;DHT22;21562;49.476;6.086;2022-07-19T07:33:45;27.80;57.60
35445;DHT22;21562;49.476;6.086;2022-07-19T07:36:11;27.80;57.10
35445;DHT22;21562;49.476;6.086;2022-07-19T07:38:37;28.00;57.90
35445;DHT22;21562;49.476;6.086;2022-07-19T07:41:04;28.10;57.60
35445;DHT22;21562;49.476;6.086;2022-07-19T07:43:29;28.20;57.50
35445;DHT22;21562;49.476;6.086;2022-07-19T07:45:55;28.30;57.50
35445;DHT22;21562;49.476;6.086;2022-07-19T07:48:21;28.50;57.80
35445;DHT22;21562;49.476;6.086;2022-07-19T07:50:47;28.50;57.70
35445;DHT22;21562;49.476;6.086;2022-07-19T07:53:12;28.60;57.30
35445;DHT22;21562;49.476;6.086;2022-07-19T07:55:38;28.80;57.10
35445;DHT22;21562;49.476;6.086;2022-07-19T07:58:08;28.80;56.90
35445;DHT22;21562;49.476;6.086;2022-07-19T08:00:35;28.80;57.20
35445;DHT22;21562;49.476;6.086;2022-07-19T08:03:01;28.80;57.20
35445;DHT22;21562;49.476;6.086;2022-07-19T08:05:27;28.80;57.20
35445;DHT22;21562;49.476;6.086;2022-07-19T08:07:53;28.90;57.10
35445;DHT22;21562;49.476;6.086;2022-07-19T08:10:20;29.00;56.70
35445;DHT22;21562;49.476;6.086;2022-07-19T08:12:46;29.20;56.60
35445;DHT22;21562;49.476;6.086;2022-07-19T08:15:13;29.30;56.40
35445;DHT22;21562;49.476;6.086;2022-07-19T08:17:39;29.30;56.80
35445;DHT22;21562;49.476;6.086;2022-07-19T08:20:05;29.50;56.50
35445;DHT22;21562;49.476;6.086;2022-07-19T08:22:31;29.70;56.30
35445;DHT22;21562;49.476;6.086;2022-07-19T08:24:57;29.80;56.10
35445;DHT22;21562;49.476;6.086;2022-07-19T08:27:23;29.90;56.00
35445;DHT22;21562;49.476;6.086;2022-07-19T08:29:48;30.10;56.10
35445;DHT22;21562;49.476;6.086;2022-07-19T08:32:14;30.20;55.70
35445;DHT22;21562;49.476;6.086;2022-07-19T08:34:40;30.50;56.10
35445;DHT22;21562;49.476;6.086;2022-07-19T08:37:06;30.60;56.70
35445;DHT22;21562;49.476;6.086;2022-07-19T08:39:31;30.60;55.70
35445;DHT22;21562;49.476;6.086;2022-07-19T08:41:57;30.60;55.40
35445;DHT22;21562;49.476;6.086;2022-07-19T08:44:23;30.80;55.50
35445;DHT22;21562;49.476;6.086;2022-07-19T08:46:49;30.90;55.20
35445;DHT22;21562;49.476;6.086;2022-07-19T08:49:16;31.00;55.30
35445;DHT22;21562;49.476;6.086;2022-07-19T08:51:42;31.10;55.00
35445;DHT22;21562;49.476;6.086;2022-07-19T08:54:08;31.20;54.90
35445;DHT22;21562;49.476;6.086;2022-07-19T08:56:34;31.30;55.00
35445;DHT22;21562;49.476;6.086;2022-07-19T08:59:18;31.60;55.30
35445;DHT22;21562;49.476;6.086;2022-07-19T09:01:44;31.60;54.80
35445;DHT22;21562;49.476;6.086;2022-07-19T09:04:21;31.60;54.00
35445;DHT22;21562;49.476;6.086;2022-07-19T09:06:52;31.60;54.30
35445;DHT22;21562;49.476;6.086;2022-07-19T09:09:26;31.50;54.30
35445;DHT22;21562;49.476;6.086;2022-07-19T09:11:52;31.50;54.40
35445;DHT22;21562;49.476;6.086;2022-07-19T09:14:21;31.60;54.00
35445;DHT22;21562;49.476;6.086;2022-07-19T09:19:19;31.90;54.40
35445;DHT22;21562;49.476;6.086;2022-07-19T09:21:53;32.00;54.10
35445;DHT22;21562;49.476;6.086;2022-07-19T09:24:20;32.10;54.30
35445;DHT22;21562;49.476;6.086;2022-07-19T09:27:07;32.10;54.40
35445;DHT22;21562;49.476;6.086;2022-07-19T09:29:36;32.40;53.50
35445;DHT22;21562;49.476;6.086;2022-07-19T09:34:30;32.50;53.20
35445;DHT22;21562;49.476;6.086;2022-07-19T09:37:24;32.70;51.70
35445;DHT22;21562;49.476;6.086;2022-07-19T09:39:58;32.60;52.40
35445;DHT22;21562;49.476;6.086;2022-07-19T09:42:39;32.80;52.20
35445;DHT22;21562;49.476;6.086;2022-07-19T09:45:09;33.00;52.30
35445;DHT22;21562;49.476;6.086;2022-07-19T09:47:40;33.00;52.80
35445;DHT22;21562;49.476;6.086;2022-07-19T09:50:09;32.90;52.10
35445;DHT22;21562;49.476;6.086;2022-07-19T09:52:35;32.80;51.60
35445;DHT22;21562;49.476;6.086;2022-07-19T09:55:07;32.90;52.00
35445;DHT22;21562;49.476;6.086;2022-07-19T09:57:39;33.00;51.70
35445;DHT22;21562;49.476;6.086;2022-07-19T10:00:06;33.20;52.50
35445;DHT22;21562;49.476;6.086;2022-07-19T10:02:36;33.60;51.80
35445;DHT22;21562;49.476;6.086;2022-07-19T10:05:03;33.90;50.90
35445;DHT22;21562;49.476;6.086;2022-07-19T10:07:33;33.90;50.00
35445;DHT22;21562;49.476;6.086;2022-07-19T10:10:04;34.10;49.90
35445;DHT22;21562;49.476;6.086;2022-07-19T10:12:31;34.10;49.20
35445;DHT22;21562;49.476;6.086;2022-07-19T10:14:57;34.20;49.70
35445;DHT22;21562;49.476;6.086;2022-07-19T10:17:32;34.20;48.20
35445;DHT22;21562;49.476;6.086;2022-07-19T10:19:59;34.20;48.30
35445;DHT22;21562;49.476;6.086;2022-07-19T10:22:26;34.00;48.10
35445;DHT22;21562;49.476;6.086;2022-07-19T10:25:06;34.10;48.50
35445;DHT22;21562;49.476;6.086;2022-07-19T10:27:41;34.30;48.50
35445;DHT22;21562;49.476;6.086;2022-07-19T10:32:35;34.90;48.70
35445;DHT22;21562;49.476;6.086;2022-07-19T10:45:30;35.50;47.90
35445;DHT22;21562;49.476;6.086;2022-07-19T10:47:59;35.80;47.70
35445;DHT22;21562;49.476;6.086;2022-07-19T10:50:44;35.90;47.00
35445;DHT22;21562;49.476;6.086;2022-07-19T10:53:10;35.80;47.30
35445;DHT22;21562;49.476;6.086;2022-07-19T10:55:36;35.90;46.40
35445;DHT22;21562;49.476;6.086;2022-07-19T10:58:09;35.90;46.70
35445;DHT22;21562;49.476;6.086;2022-07-19T11:00:46;36.00;46.60
35445;DHT22;21562;49.476;6.086;2022-07-19T11:06:01;36.50;46.00
35445;DHT22;21562;49.476;6.086;2022-07-19T11:08:40;36.60;46.30
35445;DHT22;21562;49.476;6.086;2022-07-19T11:11:11;36.70;46.00
35445;DHT22;21562;49.476;6.086;2022-07-19T11:13:39;36.80;45.50
35445;DHT22;21562;49.476;6.086;2022-07-19T11:16:05;37.00;45.40
35445;DHT22;21562;49.476;6.086;2022-07-19T11:18:32;37.00;45.50
35445;DHT22;21562;49.476;6.086;2022-07-19T11:21:03;37.00;45.50
35445;DHT22;21562;49.476;6.086;2022-07-19T11:23:33;36.90;45.10
35445;DHT22;21562;49.476;6.086;2022-07-19T11:26:14;37.00;45.40
35445;DHT22;21562;49.476;6.086;2022-07-19T11:28:43;36.80;45.20
35445;DHT22;21562;49.476;6.086;2022-07-19T11:31:19;36.70;45.40
35445;DHT22;21562;49.476;6.086;2022-07-19T11:33:46;36.90;45.40
35445;DHT22;21562;49.476;6.086;2022-07-19T11:36:14;36.70;45.20
35445;DHT22;21562;49.476;6.086;2022-07-19T11:38:55;36.70;45.40
35445;DHT22;21562;49.476;6.086;2022-07-19T11:41:31;36.70;45.60
35445;DHT22;21562;49.476;6.086;2022-07-19T11:46:36;36.90;45.80
35445;DHT22;21562;49.476;6.086;2022-07-19T11:49:08;36.90;45.80
35445;DHT22;21562;49.476;6.086;2022-07-19T11:51:34;37.00;45.50
35445;DHT22;21562;49.476;6.086;2022-07-19T11:54:02;37.20;46.00
35445;DHT22;21562;49.476;6.086;2022-07-19T11:56:33;36.90;45.30
35445;DHT22;21562;49.476;6.086;2022-07-19T11:59:01;37.10;45.60
35445;DHT22;21562;49.476;6.086;2022-07-19T12:01:29;37.30;45.80
35445;DHT22;21562;49.476;6.086;2022-07-19T12:04:04;37.50;45.40
35445;DHT22;21562;49.476;6.086;2022-07-19T12:06:40;37.70;45.30
35445;DHT22;21562;49.476;6.086;2022-07-19T12:09:18;37.60;44.50
35445;DHT22;21562;49.476;6.086;2022-07-19T12:11:49;37.50;44.80
35445;DHT22;21562;49.476;6.086;2022-07-19T12:14:27;37.70;44.70
35445;DHT22;21562;49.476;6.086;2022-07-19T12:17:17;38.00;44.40
35445;DHT22;21562;49.476;6.086;2022-07-19T12:19:47;38.00;43.60
35445;DHT22;21562;49.476;6.086;2022-07-19T12:22:36;38.10;44.00
35445;DHT22;21562;49.476;6.086;2022-07-19T12:25:04;38.00;43.90
35445;DHT22;21562;49.476;6.086;2022-07-19T12:27:30;38.10;44.40
35445;DHT22;21562;49.476;6.086;2022-07-19T12:29:57;38.30;44.00
35445;DHT22;21562;49.476;6.086;2022-07-19T12:32:35;38.00;43.10
35445;DHT22;21562;49.476;6.086;2022-07-19T12:35:11;37.90;43.10
35445;DHT22;21562;49.476;6.086;2022-07-19T12:40:25;37.80;43.10
35445;DHT22;21562;49.476;6.086;2022-07-19T12:42:58;38.00;43.50
35445;DHT22;21562;49.476;6.086;2022-07-19T12:45:37;38.40;42.90
35445;DHT22;21562;49.476;6.086;2022-07-19T12:48:05;38.40;43.60
35445;DHT22;21562;49.476;6.086;2022-07-19T12:50:32;38.60;42.70
35445;DHT22;21562;49.476;6.086;2022-07-19T12:53:01;38.80;43.00
35445;DHT22;21562;49.476;6.086;2022-07-19T12:55:29;39.00;42.70
35445;DHT22;21562;49.476;6.086;2022-07-19T12:57:57;38.80;42.70
35445;DHT22;21562;49.476;6.086;2022-07-19T13:00:24;38.90;42.60
35445;DHT22;21562;49.476;6.086;2022-07-19T13:02:51;39.00;42.60
35445;DHT22;21562;49.476;6.086;2022-07-19T13:05:17;39.20;42.30
35445;DHT22;21562;49.476;6.086;2022-07-19T13:07:43;39.30;42.30
35445;DHT22;21562;49.476;6.086;2022-07-19T13:10:09;39.30;42.20
35445;DHT22;21562;49.476;6.086;2022-07-19T13:12:36;39.20;41.50
35445;DHT22;21562;49.476;6.086;2022-07-19T13:15:02;39.00;41.40
35445;DHT22;21562;49.476;6.086;2022-07-19T13:17:28;38.90;41.20
35445;DHT22;21562;49.476;6.086;2022-07-19T13:19:54;38.70;41.50
35445;DHT22;21562;49.476;6.086;2022-07-19T13:22:19;38.80;41.30
35445;DHT22;21562;49.476;6.086;2022-07-19T13:24:45;38.80;42.10
35445;DHT22;21562;49.476;6.086;2022-07-19T13:27:11;38.70;41.70
35445;DHT22;21562;49.476;6.086;2022-07-19T13:29:36;38.70;41.70
35445;DHT22;21562;49.476;6.086;2022-07-19T13:32:04;38.80;41.50
35445;DHT22;21562;49.476;6.086;2022-07-19T13:34:30;39.10;40.90
35445;DHT22;21562;49.476;6.086;2022-07-19T13:36:55;39.20;41.10
35445;DHT22;21562;49.476;6.086;2022-07-19T13:39:21;39.00;41.50
35445;DHT22;21562;49.476;6.086;2022-07-19T13:41:47;39.40;41.40
35445;DHT22;21562;49.476;6.086;2022-07-19T13:44:13;39.50;41.40
35445;DHT22;21562;49.476;6.086;2022-07-19T13:46:39;39.60;41.00
35445;DHT22;21562;49.476;6.086;2022-07-19T13:49:04;39.90;41.00
35445;DHT22;21562;49.476;6.086;2022-07-19T13:51:31;39.80;40.40
35445;DHT22;21562;49.476;6.086;2022-07-19T13:53:57;39.70;40.70
35445;DHT22;21562;49.476;6.086;2022-07-19T13:56:23;39.60;41.50
35445;DHT22;21562;49.476;6.086;2022-07-19T13:58:49;39.60;41.30
35445;DHT22;21562;49.476;6.086;2022-07-19T14:01:15;39.80;41.60
35445;DHT22;21562;49.476;6.086;2022-07-19T14:03:41;40.00;41.30
35445;DHT22;21562;49.476;6.086;2022-07-19T14:06:06;39.90;41.20
35445;DHT22;21562;49.476;6.086;2022-07-19T14:08:33;39.60;41.50
35445;DHT22;21562;49.476;6.086;2022-07-19T14:10:59;39.60;41.40
35445;DHT22;21562;49.476;6.086;2022-07-19T14:13:25;39.80;41.10
35445;DHT22;21562;49.476;6.086;2022-07-19T14:15:51;39.50;41.10
35445;DHT22;21562;49.476;6.086;2022-07-19T14:18:17;39.70;40.90
35445;DHT22;21562;49.476;6.086;2022-07-19T14:20:42;39.90;40.30
35445;DHT22;21562;49.476;6.086;2022-07-19T14:23:10;40.20;40.00
35445;DHT22;21562;49.476;6.086;2022-07-19T14:25:36;40.20;40.20
35445;DHT22;21562;49.476;6.086;2022-07-19T14:28:02;40.40;40.20
35445;DHT22;21562;49.476;6.086;2022-07-19T14:30:28;40.20;40.00
35445;DHT22;21562;49.476;6.086;2022-07-19T14:32:54;40.10;40.00
35445;DHT22;21562;49.476;6.086;2022-07-19T14:35:19;40.30;40.10
35445;DHT22;21562;49.476;6.086;2022-07-19T14:37:45;40.40;40.50
35445;DHT22;21562;49.476;6.086;2022-07-19T14:40:12;40.40;40.10
35445;DHT22;21562;49.476;6.086;2022-07-19T14:42:38;40.30;39.50
35445;DHT22;21562;49.476;6.086;2022-07-19T14:45:05;40.20;39.30
35445;DHT22;21562;49.476;6.086;2022-07-19T14:47:32;40.00;39.80
35445;DHT22;21562;49.476;6.086;2022-07-19T14:49:58;40.30;39.90
35445;DHT22;21562;49.476;6.086;2022-07-19T14:52:24;40.30;39.50
35445;DHT22;21562;49.476;6.086;2022-07-19T14:54:50;40.50;39.80
35445;DHT22;21562;49.476;6.086;2022-07-19T14:57:15;40.40;39.80
35445;DHT22;21562;49.476;6.086;2022-07-19T14:59:41;40.30;40.10
35445;DHT22;21562;49.476;6.086;2022-07-19T15:02:07;40.40;39.40
35445;DHT22;21562;49.476;6.086;2022-07-19T15:04:34;40.20;39.00
35445;DHT22;21562;49.476;6.086;2022-07-19T15:07:00;39.80;38.60
35445;DHT22;21562;49.476;6.086;2022-07-19T15:09:26;39.90;39.00
35445;DHT22;21562;49.476;6.086;2022-07-19T15:11:52;40.00;38.40
35445;DHT22;21562;49.476;6.086;2022-07-19T15:14:18;40.20;38.40
35445;DHT22;21562;49.476;6.086;2022-07-19T15:16:43;40.30;38.70
35445;DHT22;21562;49.476;6.086;2022-07-19T15:19:09;40.40;38.60
35445;DHT22;21562;49.476;6.086;2022-07-19T15:21:36;40.50;39.00
35445;DHT22;21562;49.476;6.086;2022-07-19T15:24:03;40.50;38.60
35445;DHT22;21562;49.476;6.086;2022-07-19T15:26:29;40.30;38.80
35445;DHT22;21562;49.476;6.086;2022-07-19T15:28:55;40.40;38.70
35445;DHT22;21562;49.476;6.086;2022-07-19T15:31:21;40.60;38.90
35445;DHT22;21562;49.476;6.086;2022-07-19T15:33:47;40.70;38.60
35445;DHT22;21562;49.476;6.086;2022-07-19T15:36:13;39.90;38.60
35445;DHT22;21562;49.476;6.086;2022-07-19T15:38:38;39.70;38.50
35445;DHT22;21562;49.476;6.086;2022-07-19T15:41:05;39.70;38.40
35445;DHT22;21562;49.476;6.086;2022-07-19T15:43:30;39.90;38.30
35445;DHT22;21562;49.476;6.086;2022-07-19T15:45:56;40.10;37.60
35445;DHT22;21562;49.476;6.086;2022-07-19T15:48:22;40.20;37.50
35445;DHT22;21562;49.476;6.086;2022-07-19T15:50:47;40.10;37.90
35445;DHT22;21562;49.476;6.086;2022-07-19T15:53:13;40.30;38.00
35445;DHT22;21562;49.476;6.086;2022-07-19T15:55:39;40.10;38.10